IWINK LIPB-LIPB

Flight info

Callsign IWINK
Flight time N/A
Altitude 9500
Route LOCAL FLIGHT
Aircraft AS50/L-VGDW/C

Departure

Time 2026-04-17 19:17
Airport Bolzano Airport (LIPB)

Arrival

Time N/A
Airport Bolzano Airport (LIPB)
Time Latitude Longitude Altitude Speed Heading
2026-04-17 19:13 46.46127 11.32969 821 ft 0 kts 360°
2026-04-17 19:16 46.46132 11.32963 829 ft 8 kts 324°
2026-04-17 19:16 46.46298 11.32805 1015 ft 57 kts 11°
2026-04-17 19:17 46.46774 11.33112 1332 ft 84 kts 37°
2026-04-17 19:17 46.47245 11.33665 1685 ft 96 kts 36°
2026-04-17 19:17 46.47792 11.34064 2197 ft 88 kts 15°
2026-04-17 19:17 46.48393 11.34483 2402 ft 110 kts 35°
2026-04-17 19:18 46.48932 11.35460 2342 ft 130 kts 63°
2026-04-17 19:18 46.49220 11.36670 2568 ft 119 kts 76°
2026-04-17 19:18 46.49388 11.37736 2982 ft 104 kts 75°
2026-04-17 19:18 46.49594 11.38693 3331 ft 103 kts 66°
2026-04-17 19:19 46.49919 11.39660 3599 ft 104 kts 54°
2026-04-17 19:19 46.50314 11.40530 3900 ft 106 kts 54°
2026-04-17 19:19 46.50725 11.41430 4141 ft 109 kts 52°
2026-04-17 19:19 46.51179 11.42302 4428 ft 106 kts 44°
2026-04-17 19:20 46.51693 11.43122 4582 ft 117 kts 49°
2026-04-17 19:20 46.52253 11.44058 4456 ft 119 kts 47°
2026-04-17 19:20 46.52829 11.44765 4340 ft 92 kts 41°
2026-04-17 19:20 46.53256 11.45119 4277 ft 51 kts 20°
2026-04-17 19:21 46.53534 11.45176 4198 ft 38 kts
2026-04-17 19:21 46.53706 11.45354 4153 ft 32 kts 57°
2026-04-17 19:21 46.53786 11.45647 4088 ft 25 kts 345°
2026-04-17 19:21 46.53905 11.45699 3956 ft 9 kts 285°
2026-04-17 19:22 46.53920 11.45619 3861 ft 8 kts 289°
2026-04-17 19:22 46.53926 11.45599 3850 ft 0 kts 299°
2026-04-17 19:23 46.53926 11.45600 3863 ft 5 kts 292°
2026-04-17 19:23 46.54040 11.46268 4307 ft 70 kts 59°
2026-04-17 19:23 46.54298 11.46919 4656 ft 82 kts 59°
2026-04-17 19:24 46.54625 11.47699 4918 ft 96 kts 53°
2026-04-17 19:24 46.54968 11.48555 5185 ft 105 kts 65°
2026-04-17 19:24 46.55317 11.49575 5277 ft 120 kts 58°
2026-04-17 19:24 46.55757 11.50677 5280 ft 131 kts 57°
2026-04-17 19:25 46.56308 11.51761 5277 ft 136 kts 50°
2026-04-17 19:25 46.56875 11.52831 5385 ft 131 kts 52°
2026-04-17 19:25 46.57394 11.53884 5579 ft 124 kts 53°
2026-04-17 19:25 46.57781 11.54969 5808 ft 118 kts 67°
2026-04-17 19:26 46.58087 11.56073 5995 ft 120 kts 60°
2026-04-17 19:26 46.58476 11.57170 6124 ft 125 kts 64°
2026-04-17 19:26 46.58643 11.58343 6368 ft 118 kts 88°
2026-04-17 19:26 46.58509 11.59582 6329 ft 130 kts 103°
2026-04-17 19:27 46.58322 11.60889 6276 ft 134 kts 102°
2026-04-17 19:27 46.58203 11.62173 6423 ft 118 kts 94°
2026-04-17 19:27 46.58177 11.63350 6474 ft 122 kts 96°
2026-04-17 19:27 46.58107 11.64590 6512 ft 124 kts 93°
2026-04-17 19:28 46.58070 11.65795 6650 ft 116 kts 96°
2026-04-17 19:28 46.58055 11.66873 6927 ft 100 kts 80°
2026-04-17 19:28 46.58157 11.67926 7020 ft 108 kts 95°
2026-04-17 19:28 46.58136 11.68994 7192 ft 104 kts 86°
2026-04-17 19:29 46.58140 11.70028 7395 ft 103 kts 93°
2026-04-17 19:29 46.58189 11.71111 7483 ft 114 kts 72°
2026-04-17 19:29 46.58565 11.72146 7520 ft 114 kts 62°
2026-04-17 19:29 46.58916 11.73169 7411 ft 109 kts 59°
2026-04-17 19:30 46.59187 11.74112 7299 ft 96 kts 79°
2026-04-17 19:30 46.59438 11.74927 7209 ft 83 kts 57°
2026-04-17 19:30 46.59734 11.75567 7083 ft 59 kts 64°
2026-04-17 19:30 46.59821 11.75897 6994 ft 17 kts 53°
2026-04-17 19:31 46.59840 11.75986 6956 ft 7 kts 66°
2026-04-17 19:31 46.59855 11.76022 6938 ft 0 kts 60°
2026-04-17 19:32 46.59860 11.76025 6949 ft 8 kts 41°
2026-04-17 19:33 46.59824 11.76123 7066 ft 41 kts 212°
2026-04-17 19:33 46.59784 11.75562 7263 ft 79 kts 282°
2026-04-17 19:33 46.59985 11.74732 7544 ft 89 kts 290°
2026-04-17 19:33 46.60356 11.74126 7926 ft 89 kts 327°
2026-04-17 19:34 46.61074 11.73993 7869 ft 110 kts
2026-04-17 19:34 46.61674 11.74554 8099 ft 101 kts 39°
2026-04-17 19:34 46.62193 11.75189 8293 ft 96 kts 24°
2026-04-17 19:34 46.62788 11.75660 8365 ft 109 kts 31°
2026-04-17 19:35 46.63557 11.76009 8233 ft 123 kts
2026-04-17 19:35 46.64385 11.75709 8215 ft 117 kts 329°
2026-04-17 19:35 46.64890 11.74923 8346 ft 103 kts 302°
2026-04-17 19:35 46.65296 11.74122 8293 ft 91 kts 313°
2026-04-17 19:36 46.65736 11.73540 8297 ft 82 kts 319°
2026-04-17 19:36 46.66133 11.72985 8302 ft 76 kts 307°
2026-04-17 19:36 46.66454 11.72333 8140 ft 96 kts 324°
2026-04-17 19:36 46.67166 11.72190 7858 ft 106 kts
2026-04-17 19:37 46.67865 11.72208 7768 ft 102 kts 347°
2026-04-17 19:37 46.68562 11.72292 7778 ft 97 kts 21°
2026-04-17 19:37 46.69043 11.72769 8035 ft 71 kts 29°
2026-04-17 19:37 46.69441 11.72979 8279 ft 62 kts
2026-04-17 19:38 46.69906 11.73098 8406 ft 77 kts 16°
2026-04-17 19:38 46.70438 11.73498 8434 ft 98 kts
2026-04-17 19:38 46.71230 11.73229 8110 ft 139 kts 336°
2026-04-17 19:38 46.72117 11.72597 7870 ft 146 kts 333°
2026-04-17 19:39 46.73003 11.71648 6941 ft 176 kts 315°
2026-04-17 19:39 46.73724 11.70199 5350 ft 199 kts 303°
2026-04-17 19:39 46.74154 11.68550 4685 ft 155 kts 285°
2026-04-17 19:39 46.74224 11.66998 3691 ft 161 kts 265°
2026-04-17 19:40 46.73755 11.65715 3154 ft 140 kts 225°
2026-04-17 19:40 46.72972 11.65021 2562 ft 137 kts 210°
2026-04-17 19:40 46.72217 11.64747 2379 ft 75 kts 138°
2026-04-17 19:40 46.72305 11.65175 2217 ft 40 kts 358°
2026-04-17 19:41 46.72437 11.64965 2114 ft 18 kts 272°
2026-04-17 19:41 46.72458 11.64877 2095 ft 9 kts 274°
2026-04-17 19:41 46.72471 11.64778 2030 ft 7 kts 273°
2026-04-17 19:41 46.72471 11.64767 2021 ft 0 kts 276°
2026-04-17 19:44 46.72462 11.64842 2159 ft 25 kts 139°
2026-04-17 19:44 46.72371 11.65390 2417 ft 70 kts 106°
2026-04-17 19:45 46.72205 11.66085 2826 ft 76 kts 101°
2026-04-17 19:45 46.72086 11.66856 3210 ft 81 kts 98°
2026-04-17 19:45 46.71978 11.67690 3547 ft 88 kts 98°
2026-04-17 19:45 46.71870 11.68525 3983 ft 83 kts 98°
2026-04-17 19:46 46.71757 11.69318 4406 ft 79 kts 97°
2026-04-17 19:46 46.71642 11.70008 4881 ft 71 kts 98°
2026-04-17 19:46 46.71549 11.70630 5371 ft 63 kts 92°
2026-04-17 19:46 46.71421 11.71215 5804 ft 62 kts 95°
2026-04-17 19:47 46.71318 11.71797 6235 ft 61 kts 93°
2026-04-17 19:47 46.71276 11.72395 6669 ft 64 kts 79°
2026-04-17 19:47 46.71267 11.72988 7123 ft 58 kts 76°
2026-04-17 19:47 46.71230 11.73668 7379 ft 83 kts 93°
2026-04-17 19:48 46.71079 11.74609 7468 ft 106 kts 106°
2026-04-17 19:48 46.70802 11.75682 7545 ft 118 kts 116°
2026-04-17 19:48 46.70467 11.76737 7768 ft 113 kts 113°
2026-04-17 19:48 46.70130 11.77833 7809 ft 122 kts 111°
2026-04-17 19:49 46.69840 11.78985 7962 ft 117 kts 108°
2026-04-17 19:49 46.69687 11.80056 8302 ft 103 kts 95°
2026-04-17 19:49 46.69552 11.81082 8552 ft 108 kts 104°
2026-04-17 19:49 46.69321 11.82128 8812 ft 107 kts 105°
2026-04-17 19:50 46.69092 11.83254 8836 ft 124 kts 108°
2026-04-17 19:50 46.68800 11.84455 8816 ft 133 kts 107°
2026-04-17 19:50 46.68572 11.85918 8069 ft 163 kts 108°
2026-04-17 19:50 46.68067 11.87462 7039 ft 180 kts 132°
2026-04-17 19:51 46.67146 11.88504 6279 ft 177 kts 154°
2026-04-17 19:51 46.66179 11.89400 5929 ft 151 kts 146°
2026-04-17 19:51 46.65532 11.90295 6186 ft 112 kts 131°
2026-04-17 19:51 46.65135 11.91167 6365 ft 99 kts 121°
2026-04-17 19:52 46.64841 11.92040 6545 ft 88 kts 114°
2026-04-17 19:52 46.64583 11.92732 6800 ft 73 kts 130°
2026-04-17 19:52 46.64344 11.93300 7038 ft 67 kts 107°
2026-04-17 19:52 46.64289 11.94023 7136 ft 82 kts 80°
2026-04-17 19:53 46.64052 11.94724 7318 ft 82 kts 141°
2026-04-17 19:53 46.63659 11.95063 7875 ft 61 kts 170°
2026-04-17 19:53 46.63193 11.94917 8177 ft 83 kts 202°
2026-04-17 19:53 46.62647 11.94475 8425 ft 96 kts 210°
2026-04-17 19:54 46.62086 11.93913 8717 ft 98 kts 216°
2026-04-17 19:54 46.61546 11.93389 9112 ft 92 kts 200°
2026-04-17 19:54 46.60922 11.92929 9194 ft 114 kts 212°
2026-04-17 19:54 46.60254 11.92163 9177 ft 126 kts 225°
2026-04-17 19:55 46.59661 11.91328 9430 ft 116 kts 219°
2026-04-17 19:55 46.58969 11.90698 9556 ft 123 kts 214°
2026-04-17 19:55 46.58182 11.89977 9407 ft 138 kts 215°
2026-04-17 19:55 46.57454 11.89167 9584 ft 127 kts 218°
2026-04-17 19:56 46.56718 11.88467 9663 ft 128 kts 212°
2026-04-17 19:56 46.55837 11.87919 9487 ft 144 kts 197°
2026-04-17 19:56 46.54836 11.87736 9251 ft 156 kts 184°
2026-04-17 19:56 46.53741 11.87736 9047 ft 148 kts 180°
2026-04-17 19:57 46.52765 11.87822 9082 ft 137 kts 179°
2026-04-17 19:57 46.51929 11.87568 8642 ft 115 kts 226°
2026-04-17 19:57 46.51537 11.86669 8152 ft 100 kts 253°
2026-04-17 19:57 46.51499 11.85793 7787 ft 75 kts 289°
2026-04-17 19:58 46.51691 11.85265 7511 ft 44 kts 312°
2026-04-17 19:58 46.51842 11.85080 7443 ft 20 kts 250°
2026-04-17 19:58 46.51844 11.84977 7384 ft 4 kts 225°
2026-04-17 19:58 46.51834 11.84962 7376 ft 0 kts 209°
2026-04-17 20:08 46.51847 11.85096 7426 ft 35 kts 89°
2026-04-17 20:08 46.51758 11.85558 7544 ft 63 kts 126°
2026-04-17 20:09 46.51556 11.86284 7462 ft 89 kts 101°
2026-04-17 20:09 46.51299 11.86842 7591 ft 47 kts 245°
2026-04-17 20:09 46.51196 11.86324 7279 ft 101 kts 232°
2026-04-17 20:09 46.50403 11.86201 6791 ft 134 kts 170°
2026-04-17 20:10 46.49649 11.86972 6638 ft 140 kts 117°
2026-04-17 20:10 46.49216 11.88081 6940 ft 115 kts 131°
2026-04-17 20:10 46.48609 11.88496 7283 ft 96 kts 174°
2026-04-17 20:10 46.48061 11.88042 7592 ft 99 kts 224°
2026-04-17 20:11 46.47702 11.87108 7745 ft 107 kts 228°
2026-04-17 20:11 46.47205 11.86555 8161 ft 80 kts 206°
2026-04-17 20:11 46.46498 11.86399 7208 ft 122 kts 170°
2026-04-17 20:11 46.45904 11.86975 7102 ft 100 kts 126°
2026-04-17 20:12 46.45609 11.87960 7100 ft 113 kts 116°
2026-04-17 20:12 46.45367 11.89065 7216 ft 109 kts 112°
2026-04-17 20:12 46.44962 11.89921 7283 ft 113 kts 138°
2026-04-17 20:12 46.44209 11.90667 6714 ft 149 kts 157°
2026-04-17 20:13 46.43214 11.91172 6203 ft 154 kts 165°
2026-04-17 20:13 46.42576 11.92109 6334 ft 131 kts 112°
2026-04-17 20:13 46.42278 11.93417 6156 ft 136 kts 110°
2026-04-17 20:13 46.42069 11.94706 6188 ft 127 kts 106°
2026-04-17 20:14 46.41949 11.95923 6320 ft 117 kts 96°
2026-04-17 20:14 46.41953 11.97043 6482 ft 109 kts 92°
2026-04-17 20:14 46.41964 11.98220 6464 ft 122 kts 93°
2026-04-17 20:14 46.41894 11.99525 6251 ft 144 kts 97°
2026-04-17 20:15 46.41888 12.01015 5961 ft 147 kts 91°
2026-04-17 20:15 46.42014 12.02379 6130 ft 126 kts 81°
2026-04-17 20:15 46.42131 12.03539 6641 ft 105 kts 78°
2026-04-17 20:15 46.42329 12.04397 7248 ft 90 kts 73°
2026-04-17 20:16 46.42395 12.05391 7421 ft 113 kts 90°
2026-04-17 20:16 46.42093 12.06535 7350 ft 133 kts 124°
2026-04-17 20:16 46.41637 12.07700 7465 ft 129 kts 115°
2026-04-17 20:16 46.41340 12.08975 7420 ft 142 kts 105°
2026-04-17 20:17 46.41008 12.10323 7377 ft 141 kts 114°
2026-04-17 20:17 46.40751 12.11706 7383 ft 141 kts 103°
2026-04-17 20:17 46.40620 12.13103 7441 ft 139 kts 95°
2026-04-17 20:17 46.40589 12.14527 7404 ft 144 kts 90°
2026-04-17 20:18 46.40723 12.15986 7353 ft 144 kts 76°
2026-04-17 20:18 46.41228 12.17207 7255 ft 150 kts 44°
2026-04-17 20:18 46.42094 12.17917 7328 ft 141 kts 30°
2026-04-17 20:18 46.42988 12.18636 7174 ft 148 kts 27°
2026-04-17 20:19 46.43944 12.19158 7152 ft 147 kts 16°
2026-04-17 20:19 46.44976 12.19388 7018 ft 151 kts
2026-04-17 20:19 46.45913 12.18855 6983 ft 150 kts 316°
2026-04-17 20:19 46.46621 12.17776 7033 ft 144 kts 318°
2026-04-17 20:20 46.47244 12.16809 7417 ft 122 kts 302°
2026-04-17 20:20 46.47657 12.15666 7438 ft 137 kts 298°
2026-04-17 20:20 46.48152 12.14410 7304 ft 147 kts 292°
2026-04-17 20:20 46.48338 12.13030 7409 ft 138 kts 264°
2026-04-17 20:21 46.48311 12.11651 7525 ft 135 kts 272°
2026-04-17 20:21 46.48745 12.10443 7481 ft 142 kts 321°
2026-04-17 20:21 46.49627 12.09747 7417 ft 149 kts 328°
2026-04-17 20:21 46.50449 12.08823 7343 ft 148 kts 315°
2026-04-17 20:22 46.50864 12.07536 7268 ft 147 kts 264°
2026-04-17 20:22 46.50696 12.06146 7474 ft 128 kts 246°
2026-04-17 20:22 46.50021 12.05759 7704 ft 126 kts 169°
2026-04-17 20:22 46.49118 12.05930 7806 ft 120 kts 183°
2026-04-17 20:23 46.48738 12.05238 8421 ft 93 kts 270°
2026-04-17 20:23 46.49004 12.04398 8742 ft 103 kts 316°
2026-04-17 20:23 46.49755 12.04282 8886 ft 117 kts 20°
2026-04-17 20:23 46.50100 12.05292 8642 ft 109 kts 113°
2026-04-17 20:24 46.49804 12.05565 8656 ft 40 kts 241°
2026-04-17 20:24 46.49543 12.05133 8548 ft 57 kts 247°
2026-04-17 20:24 46.49426 12.04821 8433 ft 22 kts 285°
2026-04-17 20:24 46.49476 12.04673 8343 ft 9 kts 312°
2026-04-17 20:25 46.49515 12.04620 8319 ft 4 kts 311°
2026-04-17 20:25 46.49529 12.04602 8311 ft 0 kts 328°
2026-04-17 20:28 46.49588 12.04639 8342 ft 37 kts 354°
2026-04-17 20:29 46.50011 12.04444 8430 ft 77 kts 330°
2026-04-17 20:29 46.50258 12.03822 8554 ft 70 kts 277°
2026-04-17 20:29 46.50372 12.03140 8619 ft 78 kts 295°
2026-04-17 20:29 46.50947 12.02923 8429 ft 106 kts 17°
2026-04-17 20:30 46.51850 12.04927 7817 ft 120 kts 89°
2026-04-17 20:30 46.51761 12.06149 7532 ft 127 kts 107°
2026-04-17 20:30 46.51406 12.07233 7447 ft 120 kts 126°
2026-04-17 20:31 46.50863 12.08133 7308 ft 116 kts 141°
2026-04-17 20:31 46.50182 12.08785 7181 ft 113 kts 153°
2026-04-17 20:31 46.49661 12.09388 7334 ft 99 kts 121°
2026-04-17 20:31 46.49450 12.10500 7284 ft 126 kts 101°
2026-04-17 20:32 46.49410 12.11791 7327 ft 131 kts 72°
2026-04-17 20:32 46.50084 12.12591 7495 ft 130 kts 25°
2026-04-17 20:32 46.50973 12.12881 7622 ft 132 kts
2026-04-17 20:32 46.51894 12.12969 7659 ft 137 kts
2026-04-17 20:33 46.52883 12.12936 7601 ft 143 kts 359°
2026-04-17 20:33 46.53869 12.12968 7598 ft 142 kts
2026-04-17 20:33 46.54854 12.12817 7643 ft 138 kts 347°
2026-04-17 20:33 46.55700 12.12317 7830 ft 129 kts 327°
2026-04-17 20:34 46.56434 12.11539 7783 ft 136 kts 318°
2026-04-17 20:34 46.57103 12.10492 7554 ft 143 kts 308°
2026-04-17 20:34 46.57817 12.09403 6976 ft 154 kts 327°
2026-04-17 20:34 46.58763 12.08911 6351 ft 140 kts
2026-04-17 20:35 46.59618 12.09172 5941 ft 118 kts 32°
2026-04-17 20:35 46.60081 12.09893 5669 ft 82 kts 94°
2026-04-17 20:35 46.59853 12.10620 5317 ft 86 kts 144°
2026-04-17 20:35 46.59292 12.10909 4987 ft 88 kts 172°
2026-04-17 20:36 46.58701 12.11089 4667 ft 86 kts 173°
2026-04-17 20:36 46.58128 12.11246 4412 ft 74 kts 165°
2026-04-17 20:36 46.57743 12.11404 4355 ft 38 kts 169°
2026-04-17 20:36 46.57561 12.11473 4353 ft 20 kts 171°
2026-04-17 20:37 46.57478 12.11474 4334 ft 4 kts 259°
2026-04-17 20:37 46.57491 12.11428 4319 ft 2 kts 348°
2026-04-17 20:37 46.57494 12.11425 4316 ft 0 kts 356°
2026-04-17 20:38 46.57493 12.11424 4319 ft 1 kts
2026-04-17 20:38 46.57589 12.11455 4380 ft 44 kts 352°
2026-04-17 20:39 46.58043 12.11285 4629 ft 77 kts 345°
2026-04-17 20:39 46.58472 12.11024 5111 ft 68 kts 347°
2026-04-17 20:39 46.58976 12.10968 5486 ft 78 kts 342°
2026-04-17 20:39 46.59536 12.10796 5834 ft 89 kts 345°
2026-04-17 20:40 46.60208 12.10565 6052 ft 104 kts 339°
2026-04-17 20:40 46.60912 12.10296 6361 ft 104 kts 351°
2026-04-17 20:40 46.61496 12.10404 6899 ft 77 kts
2026-04-17 20:40 46.62003 12.10551 7269 ft 77 kts
2026-04-17 20:41 46.62534 12.10560 7614 ft 81 kts 353°
2026-04-17 20:41 46.63075 12.10409 7990 ft 79 kts 331°
2026-04-17 20:41 46.63579 12.10008 8296 ft 85 kts 322°
2026-04-17 20:41 46.64108 12.09585 8567 ft 94 kts 324°
2026-04-17 20:42 46.64693 12.09169 8816 ft 99 kts 330°
2026-04-17 20:42 46.65153 12.08612 9258 ft 82 kts 306°
2026-04-17 20:42 46.65551 12.07922 9419 ft 103 kts 309°
2026-04-17 20:42 46.66118 12.07119 9382 ft 121 kts 319°
2026-04-17 20:43 46.66811 12.06343 9298 ft 133 kts 331°
2026-04-17 20:43 46.67716 12.05927 9198 ft 137 kts 337°
2026-04-17 20:43 46.68306 12.04928 9196 ft 138 kts 289°
2026-04-17 20:43 46.68354 12.03539 9107 ft 142 kts 261°
2026-04-17 20:44 46.68072 12.02158 9016 ft 143 kts 254°
2026-04-17 20:44 46.67945 12.00707 8560 ft 158 kts 268°
2026-04-17 20:44 46.67893 11.99122 7867 ft 152 kts 269°
2026-04-17 20:44 46.67858 11.97712 7876 ft 128 kts 266°
2026-04-17 20:45 46.67765 11.96482 7879 ft 118 kts 262°
2026-04-17 20:45 46.67710 11.95248 7739 ft 133 kts 265°
2026-04-17 20:45 46.67692 11.93854 7636 ft 139 kts 267°
2026-04-17 20:45 46.67693 11.92323 7140 ft 160 kts 272°
2026-04-17 20:46 46.67871 11.90720 6806 ft 165 kts 283°
2026-04-17 20:46 46.68137 11.89136 6511 ft 160 kts 284°
2026-04-17 20:46 46.68540 11.87532 5861 ft 158 kts 302°
2026-04-17 20:46 46.69273 11.86539 6059 ft 139 kts 327°
2026-04-17 20:47 46.69806 11.85598 6220 ft 112 kts 250°
2026-04-17 20:47 46.69242 11.84779 6320 ft 117 kts 219°
2026-04-17 20:47 46.68543 11.84412 6542 ft 114 kts 185°
2026-04-17 20:47 46.67755 11.84263 6776 ft 102 kts 184°
2026-04-17 20:48 46.67226 11.84316 7343 ft 76 kts 166°
2026-04-17 20:48 46.66627 11.84225 7522 ft 96 kts 193°
2026-04-17 20:48 46.65990 11.83748 7650 ft 106 kts 204°
2026-04-17 20:48 46.65385 11.83104 7852 ft 106 kts 221°
2026-04-17 20:49 46.64892 11.82247 7913 ft 119 kts 234°
2026-04-17 20:49 46.64485 11.81155 7855 ft 130 kts 241°
2026-04-17 20:49 46.64097 11.79840 7555 ft 145 kts 247°
2026-04-17 20:49 46.63662 11.78567 7507 ft 141 kts 235°
2026-04-17 20:50 46.63016 11.77429 7296 ft 146 kts 230°
2026-04-17 20:50 46.62455 11.76309 7467 ft 126 kts 233°
2026-04-17 20:50 46.61924 11.75365 7644 ft 118 kts 223°
2026-04-17 20:50 46.61256 11.74682 7743 ft 120 kts 205°
2026-04-17 20:51 46.60569 11.74004 7790 ft 124 kts 224°
2026-04-17 20:51 46.60042 11.72974 7805 ft 122 kts 233°
2026-04-17 20:51 46.59477 11.71954 7401 ft 147 kts 231°
2026-04-17 20:51 46.58847 11.70708 6503 ft 164 kts 235°
2026-04-17 20:52 46.58169 11.69392 5675 ft 169 kts 236°
2026-04-17 20:52 46.57664 11.67883 4864 ft 170 kts 252°
2026-04-17 20:52 46.57384 11.66340 4428 ft 147 kts 262°
2026-04-17 20:52 46.57412 11.65052 4418 ft 109 kts 291°
2026-04-17 20:53 46.57801 11.64215 4407 ft 97 kts 310°
2026-04-17 20:53 46.58255 11.63537 4215 ft 89 kts 322°
2026-04-17 20:53 46.58571 11.62979 4049 ft 45 kts 347°
2026-04-17 20:53 46.58662 11.62984 3904 ft 7 kts 39°
2026-04-17 20:54 46.58690 11.63016 3797 ft 4 kts 51°
2026-04-17 20:54 46.58693 11.63028 3746 ft 2 kts 54°
2026-04-17 20:54 46.58697 11.63049 3737 ft 0 kts 25°